sensor_id;sensor_type;location;lat;lon;timestamp;temperature;humidity
24836;DHT22;12915;57.650;12.044;2023-06-10T00:01:54;17.50;93.70
24836;DHT22;12915;57.650;12.044;2023-06-10T00:04:23;17.50;93.50
24836;DHT22;12915;57.650;12.044;2023-06-10T00:06:49;17.60;93.60
24836;DHT22;12915;57.650;12.044;2023-06-10T00:09:15;17.50;93.20
24836;DHT22;12915;57.650;12.044;2023-06-10T00:11:41;17.60;93.40
24836;DHT22;12915;57.650;12.044;2023-06-10T00:14:08;17.60;93.30
24836;DHT22;12915;57.650;12.044;2023-06-10T00:16:34;17.60;93.20
24836;DHT22;12915;57.650;12.044;2023-06-10T00:19:00;17.60;93.60
24836;DHT22;12915;57.650;12.044;2023-06-10T00:21:27;17.60;93.20
24836;DHT22;12915;57.650;12.044;2023-06-10T00:23:53;17.60;93.20
24836;DHT22;12915;57.650;12.044;2023-06-10T00:26:23;17.60;93.30
24836;DHT22;12915;57.650;12.044;2023-06-10T00:28:49;17.50;93.20
24836;DHT22;12915;57.650;12.044;2023-06-10T00:31:16;17.40;92.90
24836;DHT22;12915;57.650;12.044;2023-06-10T00:33:42;17.30;93.20
24836;DHT22;12915;57.650;12.044;2023-06-10T00:36:08;17.20;93.00
24836;DHT22;12915;57.650;12.044;2023-06-10T00:38:34;17.20;93.30
24836;DHT22;12915;57.650;12.044;2023-06-10T00:41:00;17.20;93.10
24836;DHT22;12915;57.650;12.044;2023-06-10T00:43:25;17.10;92.90
24836;DHT22;12915;57.650;12.044;2023-06-10T00:45:51;17.10;93.10
24836;DHT22;12915;57.650;12.044;2023-06-10T00:48:18;17.10;93.00
24836;DHT22;12915;57.650;12.044;2023-06-10T00:50:45;17.10;92.70
24836;DHT22;12915;57.650;12.044;2023-06-10T00:53:12;16.90;93.00
24836;DHT22;12915;57.650;12.044;2023-06-10T00:55:41;16.80;93.10
24836;DHT22;12915;57.650;12.044;2023-06-10T00:58:07;16.80;93.30
24836;DHT22;12915;57.650;12.044;2023-06-10T01:00:33;16.80;93.40
24836;DHT22;12915;57.650;12.044;2023-06-10T01:02:59;16.90;93.50
24836;DHT22;12915;57.650;12.044;2023-06-10T01:05:25;16.80;93.10
24836;DHT22;12915;57.650;12.044;2023-06-10T01:10:36;16.60;93.40
24836;DHT22;12915;57.650;12.044;2023-06-10T01:13:05;16.50;93.50
24836;DHT22;12915;57.650;12.044;2023-06-10T01:15:34;16.50;93.30
24836;DHT22;12915;57.650;12.044;2023-06-10T01:18:01;16.50;93.50
24836;DHT22;12915;57.650;12.044;2023-06-10T01:20:30;16.50;93.60
24836;DHT22;12915;57.650;12.044;2023-06-10T01:23:00;16.40;93.60
24836;DHT22;12915;57.650;12.044;2023-06-10T01:25:27;16.40;93.70
24836;DHT22;12915;57.650;12.044;2023-06-10T01:28:11;16.30;94.10
24836;DHT22;12915;57.650;12.044;2023-06-10T01:33:14;16.40;94.10
24836;DHT22;12915;57.650;12.044;2023-06-10T01:35:43;16.40;94.00
24836;DHT22;12915;57.650;12.044;2023-06-10T01:38:12;16.30;94.10
24836;DHT22;12915;57.650;12.044;2023-06-10T01:40:40;16.30;94.20
24836;DHT22;12915;57.650;12.044;2023-06-10T01:43:06;16.20;94.10
24836;DHT22;12915;57.650;12.044;2023-06-10T01:45:32;16.20;93.90
24836;DHT22;12915;57.650;12.044;2023-06-10T01:47:57;16.20;93.90
24836;DHT22;12915;57.650;12.044;2023-06-10T01:50:23;16.00;94.00
24836;DHT22;12915;57.650;12.044;2023-06-10T01:52:49;16.10;94.10
24836;DHT22;12915;57.650;12.044;2023-06-10T01:55:14;16.10;94.00
24836;DHT22;12915;57.650;12.044;2023-06-10T01:57:40;16.00;94.20
24836;DHT22;12915;57.650;12.044;2023-06-10T02:00:07;15.90;94.00
24836;DHT22;12915;57.650;12.044;2023-06-10T02:02:33;15.90;94.20
24836;DHT22;12915;57.650;12.044;2023-06-10T02:04:59;15.90;94.40
24836;DHT22;12915;57.650;12.044;2023-06-10T02:07:25;15.80;94.00
24836;DHT22;12915;57.650;12.044;2023-06-10T02:09:51;15.80;93.80
24836;DHT22;12915;57.650;12.044;2023-06-10T02:12:17;15.80;93.90
24836;DHT22;12915;57.650;12.044;2023-06-10T02:14:42;15.80;93.90
24836;DHT22;12915;57.650;12.044;2023-06-10T02:17:08;15.70;94.10
24836;DHT22;12915;57.650;12.044;2023-06-10T02:19:38;15.70;94.00
24836;DHT22;12915;57.650;12.044;2023-06-10T02:22:08;15.70;94.00
24836;DHT22;12915;57.650;12.044;2023-06-10T02:24:36;15.70;94.00
24836;DHT22;12915;57.650;12.044;2023-06-10T02:27:04;15.70;93.90
24836;DHT22;12915;57.650;12.044;2023-06-10T02:29:33;15.70;94.10
24836;DHT22;12915;57.650;12.044;2023-06-10T02:31:59;15.70;94.50
24836;DHT22;12915;57.650;12.044;2023-06-10T02:34:24;15.60;94.20
24836;DHT22;12915;57.650;12.044;2023-06-10T02:36:50;15.70;94.40
24836;DHT22;12915;57.650;12.044;2023-06-10T02:39:16;15.60;94.40
24836;DHT22;12915;57.650;12.044;2023-06-10T02:41:42;15.50;94.30
24836;DHT22;12915;57.650;12.044;2023-06-10T02:44:08;15.40;94.50
24836;DHT22;12915;57.650;12.044;2023-06-10T02:46:33;15.40;94.20
24836;DHT22;12915;57.650;12.044;2023-06-10T02:48:59;15.30;94.20
24836;DHT22;12915;57.650;12.044;2023-06-10T02:51:25;15.30;94.40
24836;DHT22;12915;57.650;12.044;2023-06-10T02:53:51;15.30;94.50
24836;DHT22;12915;57.650;12.044;2023-06-10T02:56:18;15.30;94.60
24836;DHT22;12915;57.650;12.044;2023-06-10T02:58:44;15.30;94.70
24836;DHT22;12915;57.650;12.044;2023-06-10T03:01:09;15.30;94.80
24836;DHT22;12915;57.650;12.044;2023-06-10T03:03:35;15.40;94.70
24836;DHT22;12915;57.650;12.044;2023-06-10T03:06:02;15.40;94.90
24836;DHT22;12915;57.650;12.044;2023-06-10T03:08:28;15.30;95.00
24836;DHT22;12915;57.650;12.044;2023-06-10T03:10:55;15.20;95.40
24836;DHT22;12915;57.650;12.044;2023-06-10T03:13:20;15.20;95.30
24836;DHT22;12915;57.650;12.044;2023-06-10T03:15:47;15.30;95.50
24836;DHT22;12915;57.650;12.044;2023-06-10T03:18:12;15.40;95.40
24836;DHT22;12915;57.650;12.044;2023-06-10T03:20:38;15.40;95.50
24836;DHT22;12915;57.650;12.044;2023-06-10T03:23:05;15.50;95.50
24836;DHT22;12915;57.650;12.044;2023-06-10T03:25:34;15.50;95.80
24836;DHT22;12915;57.650;12.044;2023-06-10T03:27:59;15.40;95.70
24836;DHT22;12915;57.650;12.044;2023-06-10T03:30:27;15.30;95.80
24836;DHT22;12915;57.650;12.044;2023-06-10T03:32:53;15.30;96.10
24836;DHT22;12915;57.650;12.044;2023-06-10T03:35:19;15.20;96.20
24836;DHT22;12915;57.650;12.044;2023-06-10T03:37:45;15.10;96.40
24836;DHT22;12915;57.650;12.044;2023-06-10T03:40:11;15.20;96.50
24836;DHT22;12915;57.650;12.044;2023-06-10T03:42:36;15.30;96.60
24836;DHT22;12915;57.650;12.044;2023-06-10T03:45:03;15.30;96.70
24836;DHT22;12915;57.650;12.044;2023-06-10T03:47:34;15.30;96.70
24836;DHT22;12915;57.650;12.044;2023-06-10T03:50:04;15.50;96.80
24836;DHT22;12915;57.650;12.044;2023-06-10T03:52:30;15.50;96.80
24836;DHT22;12915;57.650;12.044;2023-06-10T03:54:55;15.60;96.80
24836;DHT22;12915;57.650;12.044;2023-06-10T03:57:21;15.50;97.00
24836;DHT22;12915;57.650;12.044;2023-06-10T03:59:47;15.50;97.70
24836;DHT22;12915;57.650;12.044;2023-06-10T04:02:12;15.50;97.30
24836;DHT22;12915;57.650;12.044;2023-06-10T04:04:38;15.50;97.90
24836;DHT22;12915;57.650;12.044;2023-06-10T04:07:05;15.50;97.70
24836;DHT22;12915;57.650;12.044;2023-06-10T04:09:30;15.50;98.00
24836;DHT22;12915;57.650;12.044;2023-06-10T04:11:57;15.50;98.00
24836;DHT22;12915;57.650;12.044;2023-06-10T04:14:22;15.60;98.10
24836;DHT22;12915;57.650;12.044;2023-06-10T04:16:49;15.70;98.40
24836;DHT22;12915;57.650;12.044;2023-06-10T04:19:15;15.80;98.10
24836;DHT22;12915;57.650;12.044;2023-06-10T04:21:42;15.90;98.10
24836;DHT22;12915;57.650;12.044;2023-06-10T04:24:07;15.90;98.40
24836;DHT22;12915;57.650;12.044;2023-06-10T04:26:35;15.80;98.30
24836;DHT22;12915;57.650;12.044;2023-06-10T04:29:01;15.90;98.60
24836;DHT22;12915;57.650;12.044;2023-06-10T04:31:27;15.90;98.50
24836;DHT22;12915;57.650;12.044;2023-06-10T04:33:53;16.10;98.30
24836;DHT22;12915;57.650;12.044;2023-06-10T04:36:19;16.00;98.20
24836;DHT22;12915;57.650;12.044;2023-06-10T04:38:44;16.10;97.90
24836;DHT22;12915;57.650;12.044;2023-06-10T04:41:11;16.20;98.40
24836;DHT22;12915;57.650;12.044;2023-06-10T04:43:37;16.20;97.80
24836;DHT22;12915;57.650;12.044;2023-06-10T04:46:04;16.20;97.90
24836;DHT22;12915;57.650;12.044;2023-06-10T04:48:29;16.10;97.90
24836;DHT22;12915;57.650;12.044;2023-06-10T04:50:55;16.20;97.80
24836;DHT22;12915;57.650;12.044;2023-06-10T04:53:22;16.20;97.80
24836;DHT22;12915;57.650;12.044;2023-06-10T04:55:47;16.30;97.60
24836;DHT22;12915;57.650;12.044;2023-06-10T04:58:14;16.50;97.60
24836;DHT22;12915;57.650;12.044;2023-06-10T05:00:40;16.60;97.30
24836;DHT22;12915;57.650;12.044;2023-06-10T05:03:05;16.60;97.50
24836;DHT22;12915;57.650;12.044;2023-06-10T05:05:31;16.60;97.50
24836;DHT22;12915;57.650;12.044;2023-06-10T05:07:57;16.70;97.40
24836;DHT22;12915;57.650;12.044;2023-06-10T05:10:23;16.80;97.30
24836;DHT22;12915;57.650;12.044;2023-06-10T05:12:49;16.90;97.30
24836;DHT22;12915;57.650;12.044;2023-06-10T05:15:14;16.90;97.20
24836;DHT22;12915;57.650;12.044;2023-06-10T05:17:40;16.80;97.10
24836;DHT22;12915;57.650;12.044;2023-06-10T05:20:06;16.90;97.30
24836;DHT22;12915;57.650;12.044;2023-06-10T05:22:32;16.90;97.30
24836;DHT22;12915;57.650;12.044;2023-06-10T05:24:57;17.00;97.40
24836;DHT22;12915;57.650;12.044;2023-06-10T05:27:23;17.10;97.30
24836;DHT22;12915;57.650;12.044;2023-06-10T05:29:50;17.30;97.10
24836;DHT22;12915;57.650;12.044;2023-06-10T05:32:17;17.30;97.00
24836;DHT22;12915;57.650;12.044;2023-06-10T05:34:43;17.30;97.10
24836;DHT22;12915;57.650;12.044;2023-06-10T05:37:09;17.40;97.00
24836;DHT22;12915;57.650;12.044;2023-06-10T05:39:35;17.30;97.40
24836;DHT22;12915;57.650;12.044;2023-06-10T05:42:04;17.50;97.20
24836;DHT22;12915;57.650;12.044;2023-06-10T05:44:32;17.60;97.10
24836;DHT22;12915;57.650;12.044;2023-06-10T05:46:58;17.60;97.30
24836;DHT22;12915;57.650;12.044;2023-06-10T05:49:23;17.70;97.20
24836;DHT22;12915;57.650;12.044;2023-06-10T05:51:49;17.70;97.50
24836;DHT22;12915;57.650;12.044;2023-06-10T05:54:15;17.60;97.80
24836;DHT22;12915;57.650;12.044;2023-06-10T05:56:41;17.70;97.50
24836;DHT22;12915;57.650;12.044;2023-06-10T05:59:06;17.90;97.80
24836;DHT22;12915;57.650;12.044;2023-06-10T06:01:32;18.10;98.00
24836;DHT22;12915;57.650;12.044;2023-06-10T06:03:58;18.20;97.40
24836;DHT22;12915;57.650;12.044;2023-06-10T06:06:23;18.40;97.40
24836;DHT22;12915;57.650;12.044;2023-06-10T06:08:49;18.40;97.40
24836;DHT22;12915;57.650;12.044;2023-06-10T06:11:15;18.50;97.80
24836;DHT22;12915;57.650;12.044;2023-06-10T06:13:41;18.40;97.00
24836;DHT22;12915;57.650;12.044;2023-06-10T06:16:07;18.40;97.40
24836;DHT22;12915;57.650;12.044;2023-06-10T06:18:33;18.50;97.40
24836;DHT22;12915;57.650;12.044;2023-06-10T06:20:59;18.60;97.80
24836;DHT22;12915;57.650;12.044;2023-06-10T06:23:25;18.60;97.20
24836;DHT22;12915;57.650;12.044;2023-06-10T06:25:51;18.60;97.30
24836;DHT22;12915;57.650;12.044;2023-06-10T06:28:17;18.60;97.80
24836;DHT22;12915;57.650;12.044;2023-06-10T06:30:44;18.60;98.10
24836;DHT22;12915;57.650;12.044;2023-06-10T06:33:10;18.60;97.50
24836;DHT22;12915;57.650;12.044;2023-06-10T06:35:36;18.70;97.90
24836;DHT22;12915;57.650;12.044;2023-06-10T06:38:03;18.90;98.40
24836;DHT22;12915;57.650;12.044;2023-06-10T06:40:30;18.70;98.20
24836;DHT22;12915;57.650;12.044;2023-06-10T06:42:55;18.90;98.50
24836;DHT22;12915;57.650;12.044;2023-06-10T06:45:21;19.10;97.90
24836;DHT22;12915;57.650;12.044;2023-06-10T06:47:47;19.10;97.90
24836;DHT22;12915;57.650;12.044;2023-06-10T06:50:13;19.30;98.60
24836;DHT22;12915;57.650;12.044;2023-06-10T06:52:39;19.40;97.60
24836;DHT22;12915;57.650;12.044;2023-06-10T06:55:05;19.50;97.90
24836;DHT22;12915;57.650;12.044;2023-06-10T06:57:30;19.60;98.00
24836;DHT22;12915;57.650;12.044;2023-06-10T06:59:56;19.70;98.00
24836;DHT22;12915;57.650;12.044;2023-06-10T07:02:22;19.90;98.40
24836;DHT22;12915;57.650;12.044;2023-06-10T07:04:48;20.10;97.90
24836;DHT22;12915;57.650;12.044;2023-06-10T07:07:15;20.20;97.90
24836;DHT22;12915;57.650;12.044;2023-06-10T07:09:41;20.20;97.70
24836;DHT22;12915;57.650;12.044;2023-06-10T07:12:07;20.20;97.50
24836;DHT22;12915;57.650;12.044;2023-06-10T07:14:33;20.10;97.90
24836;DHT22;12915;57.650;12.044;2023-06-10T07:16:59;20.20;97.30
24836;DHT22;12915;57.650;12.044;2023-06-10T07:19:24;20.30;97.40
24836;DHT22;12915;57.650;12.044;2023-06-10T07:21:50;20.50;96.60
24836;DHT22;12915;57.650;12.044;2023-06-10T07:24:16;20.40;96.60
24836;DHT22;12915;57.650;12.044;2023-06-10T07:26:41;20.60;97.10
24836;DHT22;12915;57.650;12.044;2023-06-10T07:29:07;20.70;96.60
24836;DHT22;12915;57.650;12.044;2023-06-10T07:31:33;20.60;96.00
24836;DHT22;12915;57.650;12.044;2023-06-10T07:33:58;20.60;96.50
24836;DHT22;12915;57.650;12.044;2023-06-10T07:36:24;20.70;96.00
24836;DHT22;12915;57.650;12.044;2023-06-10T07:38:53;20.90;97.00
24836;DHT22;12915;57.650;12.044;2023-06-10T07:41:19;20.80;96.60
24836;DHT22;12915;57.650;12.044;2023-06-10T07:43:45;20.90;96.00
24836;DHT22;12915;57.650;12.044;2023-06-10T07:46:10;21.10;96.50
24836;DHT22;12915;57.650;12.044;2023-06-10T07:48:36;21.40;96.10
24836;DHT22;12915;57.650;12.044;2023-06-10T07:51:02;21.50;95.80
24836;DHT22;12915;57.650;12.044;2023-06-10T07:53:35;21.40;95.70
24836;DHT22;12915;57.650;12.044;2023-06-10T07:56:04;21.40;95.00
24836;DHT22;12915;57.650;12.044;2023-06-10T07:58:29;21.60;95.20
24836;DHT22;12915;57.650;12.044;2023-06-10T08:00:55;21.70;95.60
24836;DHT22;12915;57.650;12.044;2023-06-10T08:03:21;21.90;95.20
24836;DHT22;12915;57.650;12.044;2023-06-10T08:05:47;21.80;94.90
24836;DHT22;12915;57.650;12.044;2023-06-10T08:08:13;21.80;95.70
24836;DHT22;12915;57.650;12.044;2023-06-10T08:10:38;21.90;95.20
24836;DHT22;12915;57.650;12.044;2023-06-10T08:13:04;22.20;95.10
24836;DHT22;12915;57.650;12.044;2023-06-10T08:15:30;22.20;94.30
24836;DHT22;12915;57.650;12.044;2023-06-10T08:17:56;22.10;94.30
24836;DHT22;12915;57.650;12.044;2023-06-10T08:20:24;22.00;94.30
24836;DHT22;12915;57.650;12.044;2023-06-10T08:22:50;22.00;94.90
24836;DHT22;12915;57.650;12.044;2023-06-10T08:25:16;22.30;95.00
24836;DHT22;12915;57.650;12.044;2023-06-10T08:27:41;22.60;93.20
24836;DHT22;12915;57.650;12.044;2023-06-10T08:30:08;22.60;93.50
24836;DHT22;12915;57.650;12.044;2023-06-10T08:32:36;22.50;93.90
24836;DHT22;12915;57.650;12.044;2023-06-10T08:35:02;22.40;93.60
24836;DHT22;12915;57.650;12.044;2023-06-10T08:37:28;22.40;93.20
24836;DHT22;12915;57.650;12.044;2023-06-10T08:39:53;22.60;93.40
24836;DHT22;12915;57.650;12.044;2023-06-10T08:44:53;22.80;93.60
24836;DHT22;12915;57.650;12.044;2023-06-10T08:47:22;22.60;93.30
24836;DHT22;12915;57.650;12.044;2023-06-10T08:49:48;22.50;93.70
24836;DHT22;12915;57.650;12.044;2023-06-10T08:52:18;22.60;93.40
24836;DHT22;12915;57.650;12.044;2023-06-10T08:55:10;22.80;95.30
24836;DHT22;12915;57.650;12.044;2023-06-10T08:57:36;22.80;92.80
24836;DHT22;12915;57.650;12.044;2023-06-10T09:00:03;22.70;93.50
24836;DHT22;12915;57.650;12.044;2023-06-10T09:02:28;22.90;93.50
24836;DHT22;12915;57.650;12.044;2023-06-10T09:04:56;23.00;93.70
24836;DHT22;12915;57.650;12.044;2023-06-10T09:07:23;23.00;93.90
24836;DHT22;12915;57.650;12.044;2023-06-10T09:09:49;22.70;92.20
24836;DHT22;12915;57.650;12.044;2023-06-10T09:12:15;22.80;92.20
24836;DHT22;12915;57.650;12.044;2023-06-10T09:14:42;23.00;91.70
24836;DHT22;12915;57.650;12.044;2023-06-10T09:17:08;23.30;92.30
24836;DHT22;12915;57.650;12.044;2023-06-10T09:19:35;23.30;91.00
24836;DHT22;12915;57.650;12.044;2023-06-10T09:22:03;23.10;90.40
24836;DHT22;12915;57.650;12.044;2023-06-10T09:24:29;23.10;91.40
24836;DHT22;12915;57.650;12.044;2023-06-10T09:27:06;23.20;90.70
24836;DHT22;12915;57.650;12.044;2023-06-10T09:29:51;23.20;91.40
24836;DHT22;12915;57.650;12.044;2023-06-10T09:32:19;23.40;90.70
24836;DHT22;12915;57.650;12.044;2023-06-10T09:34:45;23.70;91.50
24836;DHT22;12915;57.650;12.044;2023-06-10T09:37:11;23.90;90.50
24836;DHT22;12915;57.650;12.044;2023-06-10T09:39:39;23.90;90.20
24836;DHT22;12915;57.650;12.044;2023-06-10T09:42:18;23.90;90.10
24836;DHT22;12915;57.650;12.044;2023-06-10T09:44:51;24.00;90.20
24836;DHT22;12915;57.650;12.044;2023-06-10T09:47:21;24.40;90.60
24836;DHT22;12915;57.650;12.044;2023-06-10T09:49:50;24.50;90.30
24836;DHT22;12915;57.650;12.044;2023-06-10T09:52:23;24.40;90.40
24836;DHT22;12915;57.650;12.044;2023-06-10T09:54:50;24.50;90.70
24836;DHT22;12915;57.650;12.044;2023-06-10T09:57:17;24.70;90.30
24836;DHT22;12915;57.650;12.044;2023-06-10T09:59:42;24.80;90.90
24836;DHT22;12915;57.650;12.044;2023-06-10T10:02:17;24.80;91.60
24836;DHT22;12915;57.650;12.044;2023-06-10T10:04:44;24.80;91.40
24836;DHT22;12915;57.650;12.044;2023-06-10T10:07:10;25.10;90.80
24836;DHT22;12915;57.650;12.044;2023-06-10T10:09:37;25.30;91.50
24836;DHT22;12915;57.650;12.044;2023-06-10T10:14:34;24.80;91.20
24836;DHT22;12915;57.650;12.044;2023-06-10T10:17:01;24.80;90.70
24836;DHT22;12915;57.650;12.044;2023-06-10T10:19:43;24.80;90.60
24836;DHT22;12915;57.650;12.044;2023-06-10T10:22:15;25.00;91.40
24836;DHT22;12915;57.650;12.044;2023-06-10T10:25:02;25.40;90.70
24836;DHT22;12915;57.650;12.044;2023-06-10T10:27:36;25.50;89.60
24836;DHT22;12915;57.650;12.044;2023-06-10T10:30:06;25.30;90.20
24836;DHT22;12915;57.650;12.044;2023-06-10T10:32:38;25.00;90.40
24836;DHT22;12915;57.650;12.044;2023-06-10T10:35:16;25.20;90.80
24836;DHT22;12915;57.650;12.044;2023-06-10T10:37:43;25.60;90.20
24836;DHT22;12915;57.650;12.044;2023-06-10T10:40:10;25.60;91.00
24836;DHT22;12915;57.650;12.044;2023-06-10T10:42:37;25.40;90.80
24836;DHT22;12915;57.650;12.044;2023-06-10T10:45:04;25.00;90.30
24836;DHT22;12915;57.650;12.044;2023-06-10T10:47:31;25.10;90.80
24836;DHT22;12915;57.650;12.044;2023-06-10T10:49:58;25.30;90.70
24836;DHT22;12915;57.650;12.044;2023-06-10T10:52:26;25.60;91.10
24836;DHT22;12915;57.650;12.044;2023-06-10T10:54:53;25.70;91.70
24836;DHT22;12915;57.650;12.044;2023-06-10T10:57:21;25.70;91.00
24836;DHT22;12915;57.650;12.044;2023-06-10T10:59:58;25.80;91.10
24836;DHT22;12915;57.650;12.044;2023-06-10T11:02:45;25.90;88.40
24836;DHT22;12915;57.650;12.044;2023-06-10T11:05:14;26.10;90.20
24836;DHT22;12915;57.650;12.044;2023-06-10T11:07:41;26.10;88.20
24836;DHT22;12915;57.650;12.044;2023-06-10T11:10:17;26.00;88.00
24836;DHT22;12915;57.650;12.044;2023-06-10T11:12:50;26.00;90.00
24836;DHT22;12915;57.650;12.044;2023-06-10T11:15:28;26.20;89.50
24836;DHT22;12915;57.650;12.044;2023-06-10T11:23:10;26.70;87.60
24836;DHT22;12915;57.650;12.044;2023-06-10T11:25:39;26.80;90.00
24836;DHT22;12915;57.650;12.044;2023-06-10T11:28:19;27.00;87.50
24836;DHT22;12915;57.650;12.044;2023-06-10T11:30:45;27.10;85.40
24836;DHT22;12915;57.650;12.044;2023-06-10T11:33:17;26.90;87.30
24836;DHT22;12915;57.650;12.044;2023-06-10T11:35:43;26.90;87.50
24836;DHT22;12915;57.650;12.044;2023-06-10T11:38:09;26.90;85.00
24836;DHT22;12915;57.650;12.044;2023-06-10T11:40:36;26.90;88.70
24836;DHT22;12915;57.650;12.044;2023-06-10T11:43:04;26.80;88.50
24836;DHT22;12915;57.650;12.044;2023-06-10T11:45:30;26.90;87.30
24836;DHT22;12915;57.650;12.044;2023-06-10T11:47:59;27.00;86.90
24836;DHT22;12915;57.650;12.044;2023-06-10T11:50:32;27.20;86.30
24836;DHT22;12915;57.650;12.044;2023-06-10T11:52:58;27.40;86.90
24836;DHT22;12915;57.650;12.044;2023-06-10T11:55:45;27.60;87.30
24836;DHT22;12915;57.650;12.044;2023-06-10T11:58:19;27.70;85.60
24836;DHT22;12915;57.650;12.044;2023-06-10T12:00:52;27.60;89.30
24836;DHT22;12915;57.650;12.044;2023-06-10T12:03:27;27.50;86.70
24836;DHT22;12915;57.650;12.044;2023-06-10T12:06:02;27.80;86.70
24836;DHT22;12915;57.650;12.044;2023-06-10T12:08:29;27.80;85.40
24836;DHT22;12915;57.650;12.044;2023-06-10T12:10:56;27.90;85.80
24836;DHT22;12915;57.650;12.044;2023-06-10T12:13:26;28.10;86.40
24836;DHT22;12915;57.650;12.044;2023-06-10T12:15:52;27.80;85.30
24836;DHT22;12915;57.650;12.044;2023-06-10T12:18:19;27.70;85.40
24836;DHT22;12915;57.650;12.044;2023-06-10T12:20:46;27.70;83.80
24836;DHT22;12915;57.650;12.044;2023-06-10T12:23:12;28.10;84.30
24836;DHT22;12915;57.650;12.044;2023-06-10T12:25:38;27.90;85.20
24836;DHT22;12915;57.650;12.044;2023-06-10T12:28:05;27.80;85.40
24836;DHT22;12915;57.650;12.044;2023-06-10T12:30:32;27.60;85.00
24836;DHT22;12915;57.650;12.044;2023-06-10T12:32:58;27.40;86.30
24836;DHT22;12915;57.650;12.044;2023-06-10T12:35:26;27.70;85.00
24836;DHT22;12915;57.650;12.044;2023-06-10T12:40:29;28.40;82.70
24836;DHT22;12915;57.650;12.044;2023-06-10T12:42:57;28.70;84.70
24836;DHT22;12915;57.650;12.044;2023-06-10T12:45:33;28.70;82.80
24836;DHT22;12915;57.650;12.044;2023-06-10T12:48:11;28.50;81.80
24836;DHT22;12915;57.650;12.044;2023-06-10T12:50:42;28.80;83.40
24836;DHT22;12915;57.650;12.044;2023-06-10T12:53:09;28.80;82.80
24836;DHT22;12915;57.650;12.044;2023-06-10T12:55:37;29.00;82.80
24836;DHT22;12915;57.650;12.044;2023-06-10T12:58:03;28.90;80.40
24836;DHT22;12915;57.650;12.044;2023-06-10T13:00:29;29.00;82.30
24836;DHT22;12915;57.650;12.044;2023-06-10T13:03:00;29.30;79.80
24836;DHT22;12915;57.650;12.044;2023-06-10T13:05:27;29.50;80.80
24836;DHT22;12915;57.650;12.044;2023-06-10T13:07:53;29.20;81.20
24836;DHT22;12915;57.650;12.044;2023-06-10T13:10:20;29.30;79.90
24836;DHT22;12915;57.650;12.044;2023-06-10T13:12:46;29.30;83.70
24836;DHT22;12915;57.650;12.044;2023-06-10T13:15:12;29.40;82.80
24836;DHT22;12915;57.650;12.044;2023-06-10T13:17:38;29.40;79.80
24836;DHT22;12915;57.650;12.044;2023-06-10T13:20:06;29.40;80.10
24836;DHT22;12915;57.650;12.044;2023-06-10T13:22:33;29.50;80.60
24836;DHT22;12915;57.650;12.044;2023-06-10T13:25:00;29.70;80.50
24836;DHT22;12915;57.650;12.044;2023-06-10T13:27:26;29.90;79.70
24836;DHT22;12915;57.650;12.044;2023-06-10T13:29:52;30.00;80.70
24836;DHT22;12915;57.650;12.044;2023-06-10T13:32:18;30.00;80.70
24836;DHT22;12915;57.650;12.044;2023-06-10T13:34:44;29.60;79.90
24836;DHT22;12915;57.650;12.044;2023-06-10T13:37:10;29.60;81.60
24836;DHT22;12915;57.650;12.044;2023-06-10T13:39:38;29.90;77.60
24836;DHT22;12915;57.650;12.044;2023-06-10T13:42:04;29.90;78.60
24836;DHT22;12915;57.650;12.044;2023-06-10T13:44:30;30.00;80.90
24836;DHT22;12915;57.650;12.044;2023-06-10T13:46:59;29.90;77.10
24836;DHT22;12915;57.650;12.044;2023-06-10T13:49:25;29.80;77.70
24836;DHT22;12915;57.650;12.044;2023-06-10T13:51:50;29.70;78.60
24836;DHT22;12915;57.650;12.044;2023-06-10T13:54:16;29.90;79.40
24836;DHT22;12915;57.650;12.044;2023-06-10T13:56:42;30.00;76.60
24836;DHT22;12915;57.650;12.044;2023-06-10T13:59:07;30.10;77.40
24836;DHT22;12915;57.650;12.044;2023-06-10T14:01:33;30.10;77.60
24836;DHT22;12915;57.650;12.044;2023-06-10T14:04:00;30.30;78.40
24836;DHT22;12915;57.650;12.044;2023-06-10T14:06:26;30.40;77.70
24836;DHT22;12915;57.650;12.044;2023-06-10T14:08:52;30.90;78.30
24836;DHT22;12915;57.650;12.044;2023-06-10T14:11:20;31.70;77.30
24836;DHT22;12915;57.650;12.044;2023-06-10T14:13:46;32.60;76.70
24836;DHT22;12915;57.650;12.044;2023-06-10T14:16:12;33.50;76.00
24836;DHT22;12915;57.650;12.044;2023-06-10T14:18:38;33.70;76.50
24836;DHT22;12915;57.650;12.044;2023-06-10T14:21:03;34.20;74.70
24836;DHT22;12915;57.650;12.044;2023-06-10T14:23:29;34.30;74.60
24836;DHT22;12915;57.650;12.044;2023-06-10T14:25:55;34.60;70.60
24836;DHT22;12915;57.650;12.044;2023-06-10T14:28:21;34.60;69.30
24836;DHT22;12915;57.650;12.044;2023-06-10T14:30:46;34.60;69.40
24836;DHT22;12915;57.650;12.044;2023-06-10T14:33:14;34.70;69.60
24836;DHT22;12915;57.650;12.044;2023-06-10T14:35:40;34.60;69.00
24836;DHT22;12915;57.650;12.044;2023-06-10T14:38:05;34.90;67.60
24836;DHT22;12915;57.650;12.044;2023-06-10T14:40:31;35.40;67.90
24836;DHT22;12915;57.650;12.044;2023-06-10T14:42:57;35.70;66.90
24836;DHT22;12915;57.650;12.044;2023-06-10T14:45:23;35.60;67.70
24836;DHT22;12915;57.650;12.044;2023-06-10T14:47:50;35.60;66.90
24836;DHT22;12915;57.650;12.044;2023-06-10T14:50:16;35.60;66.70
24836;DHT22;12915;57.650;12.044;2023-06-10T14:52:42;35.70;66.20
24836;DHT22;12915;57.650;12.044;2023-06-10T14:55:08;36.20;64.60
24836;DHT22;12915;57.650;12.044;2023-06-10T14:57:34;36.60;65.80
24836;DHT22;12915;57.650;12.044;2023-06-10T15:00:00;36.90;64.60
24836;DHT22;12915;57.650;12.044;2023-06-10T15:02:26;36.90;64.50
24836;DHT22;12915;57.650;12.044;2023-06-10T15:04:52;36.80;63.20
24836;DHT22;12915;57.650;12.044;2023-06-10T15:07:18;37.20;62.10
24836;DHT22;12915;57.650;12.044;2023-06-10T15:09:43;37.50;63.60
24836;DHT22;12915;57.650;12.044;2023-06-10T15:12:09;37.10;63.70
24836;DHT22;12915;57.650;12.044;2023-06-10T15:14:36;37.40;62.00
24836;DHT22;12915;57.650;12.044;2023-06-10T15:17:02;36.90;62.60
24836;DHT22;12915;57.650;12.044;2023-06-10T15:19:28;36.30;63.70
24836;DHT22;12915;57.650;12.044;2023-06-10T15:21:54;35.50;61.60
24836;DHT22;12915;57.650;12.044;2023-06-10T15:24:19;35.30;61.30
24836;DHT22;12915;57.650;12.044;2023-06-10T15:26:45;35.70;62.30
24836;DHT22;12915;57.650;12.044;2023-06-10T15:29:11;35.60;61.20
24836;DHT22;12915;57.650;12.044;2023-06-10T15:31:37;36.10;60.90
24836;DHT22;12915;57.650;12.044;2023-06-10T15:34:03;36.80;60.10